createdAt,value
2022-11-19T00:02:19.254Z,6.37
2022-11-19T00:04:45.883Z,6.38
2022-11-19T00:07:12.363Z,6.47
2022-11-19T00:09:38.943Z,6.30
2022-11-19T00:12:05.508Z,6.28
2022-11-19T00:14:32.008Z,6.18
2022-11-19T00:16:58.487Z,6.31
2022-11-19T00:19:25.020Z,6.50
2022-11-19T00:21:51.586Z,6.76
2022-11-19T00:24:18.112Z,7.00
2022-11-19T00:26:44.591Z,7.29
2022-11-19T00:29:17.923Z,7.31
2022-11-19T00:31:44.693Z,7.40
2022-11-19T00:34:14.037Z,7.47
2022-11-19T00:36:40.484Z,7.47
2022-11-19T00:39:06.943Z,7.52
2022-11-19T00:41:36.800Z,7.34
2022-11-19T00:44:05.817Z,7.43
2022-11-19T00:46:32.694Z,7.68
2022-11-19T00:49:00.026Z,7.86
2022-11-19T00:51:29.504Z,7.99
2022-11-19T00:53:57.215Z,8.24
2022-11-19T00:56:26.058Z,8.33
2022-11-19T00:58:53.095Z,8.24
2022-11-19T01:01:21.915Z,8.38
2022-11-19T01:03:51.417Z,8.43
2022-11-19T01:06:20.030Z,8.39
2022-11-19T01:08:53.218Z,8.41
2022-11-19T01:11:25.328Z,8.44
2022-11-19T01:13:51.999Z,8.49
2022-11-19T01:16:23.728Z,8.46
2022-11-19T01:18:51.209Z,8.35
2022-11-19T01:21:19.359Z,8.12
2022-11-19T01:23:46.090Z,8.04
2022-11-19T01:26:15.245Z,7.95
2022-11-19T01:28:42.877Z,7.92
2022-11-19T01:31:21.806Z,7.77
2022-11-19T01:33:48.716Z,7.65
2022-11-19T01:36:21.571Z,7.62
2022-11-19T01:38:48.541Z,7.63
2022-11-19T01:41:15.123Z,7.81
2022-11-19T01:44:02.610Z,7.87
2022-11-19T01:46:34.462Z,7.94
2022-11-19T01:49:06.337Z,7.82
2022-11-19T01:51:46.315Z,7.80
2022-11-19T01:54:18.899Z,7.78
2022-11-19T01:56:45.410Z,7.59
2022-11-19T01:59:17.602Z,7.58
2022-11-19T02:01:44.986Z,7.70
2022-11-19T02:04:13.269Z,7.71
2022-11-19T02:06:39.803Z,7.76
2022-11-19T02:09:06.276Z,7.73
2022-11-19T02:12:03.460Z,7.63
2022-11-19T02:14:32.907Z,7.45
2022-11-19T02:17:11.742Z,7.34
2022-11-19T02:20:15.958Z,7.14
2022-11-19T02:23:01.027Z,7.10
2022-11-19T02:25:48.580Z,7.18
2022-11-19T02:28:31.610Z,7.28
2022-11-19T02:31:18.723Z,7.02
2022-11-19T02:33:55.461Z,6.83
2022-11-19T02:36:40.734Z,6.99
2022-11-19T02:39:20.171Z,6.68
2022-11-19T02:41:54.011Z,6.65
2022-11-19T02:44:29.254Z,6.71
2022-11-19T02:46:56.643Z,6.90
2022-11-19T02:49:26.230Z,6.96
2022-11-19T02:51:52.850Z,7.04
2022-11-19T02:54:19.414Z,7.09
2022-11-19T02:56:56.978Z,7.05
2022-11-19T02:59:30.164Z,6.85
2022-11-19T03:01:57.255Z,6.83
2022-11-19T03:04:27.608Z,6.83
2022-11-19T03:06:54.147Z,6.85
2022-11-19T03:09:21.271Z,6.91
2022-11-19T03:11:57.851Z,6.96
2022-11-19T03:14:26.838Z,6.89
2022-11-19T03:16:58.816Z,6.78
2022-11-19T03:19:36.585Z,6.71
2022-11-19T03:22:22.883Z,6.70
2022-11-19T03:24:49.503Z,6.71
2022-11-19T03:27:21.344Z,6.66
2022-11-19T03:29:50.110Z,6.53
2022-11-19T03:32:19.827Z,6.38
2022-11-19T03:34:48.620Z,6.35
2022-11-19T03:37:17.038Z,6.39
2022-11-19T03:39:43.917Z,6.32
2022-11-19T03:42:12.740Z,6.21
2022-11-19T03:44:49.689Z,6.22
2022-11-19T03:47:20.034Z,6.26
2022-11-19T03:49:50.431Z,6.26
2022-11-19T03:52:18.002Z,6.36
2022-11-19T03:54:44.630Z,6.42
2022-11-19T03:57:13.333Z,6.30
2022-11-19T03:59:39.850Z,6.47
2022-11-19T04:02:08.604Z,6.50
2022-11-19T04:04:35.278Z,6.50
2022-11-19T04:07:01.793Z,6.45
2022-11-19T04:09:28.262Z,6.37
2022-11-19T04:14:40.696Z,6.41
2022-11-19T04:17:18.498Z,6.69
2022-11-19T04:19:45.012Z,6.83
2022-11-19T04:22:17.591Z,6.92
2022-11-19T04:24:44.204Z,7.05
2022-11-19T04:27:11.027Z,7.20
2022-11-19T04:29:37.702Z,7.38
2022-11-19T04:32:04.582Z,7.53
2022-11-19T04:34:31.202Z,7.45
2022-11-19T04:36:57.675Z,7.05
2022-11-19T04:39:25.279Z,6.96
2022-11-19T04:41:51.764Z,6.94
2022-11-19T04:44:18.227Z,7.00
2022-11-19T04:46:44.737Z,7.09
2022-11-19T04:49:11.204Z,7.11
2022-11-19T04:51:37.790Z,7.22
2022-11-19T04:54:04.457Z,7.26
2022-11-19T04:56:30.938Z,7.18
2022-11-19T04:58:57.403Z,7.25
2022-11-19T05:01:24.018Z,7.41
2022-11-19T05:03:50.525Z,7.54
2022-11-19T05:06:17.107Z,7.63
2022-11-19T05:08:43.704Z,7.66
2022-11-19T05:11:10.285Z,7.75
2022-11-19T05:13:37.358Z,7.81
2022-11-19T05:16:04.391Z,7.71
2022-11-19T05:18:30.882Z,7.56
2022-11-19T05:20:57.394Z,7.64
2022-11-19T05:23:24.019Z,7.62
2022-11-19T05:25:51.041Z,7.70
2022-11-19T05:28:17.747Z,7.83
2022-11-19T05:30:44.621Z,7.93
2022-11-19T05:33:11.247Z,7.99
2022-11-19T05:35:37.686Z,8.11
2022-11-19T05:38:04.204Z,8.05
2022-11-19T05:40:30.953Z,7.83
2022-11-19T05:43:03.828Z,7.91
2022-11-19T05:45:30.725Z,7.93
2022-11-19T05:47:58.074Z,8.14
2022-11-19T05:50:26.567Z,8.16
2022-11-19T05:52:53.032Z,8.15
2022-11-19T05:55:19.475Z,7.93
2022-11-19T05:57:46.025Z,7.87
2022-11-19T06:00:13.866Z,7.84
2022-11-19T06:02:40.448Z,7.76
2022-11-19T06:05:07.283Z,7.84
2022-11-19T06:07:34.120Z,7.84
2022-11-19T06:10:00.642Z,7.70
2022-11-19T06:12:27.176Z,7.49
2022-11-19T06:14:53.694Z,7.50
2022-11-19T06:17:20.162Z,7.49
2022-11-19T06:19:46.635Z,7.33
2022-11-19T06:22:13.612Z,7.23
2022-11-19T06:24:40.311Z,7.36
2022-11-19T06:27:06.859Z,7.58
2022-11-19T06:29:33.394Z,7.72
2022-11-19T06:31:59.841Z,7.78
2022-11-19T06:34:26.955Z,7.50
2022-11-19T06:36:53.499Z,7.35
2022-11-19T06:39:23.092Z,7.34
2022-11-19T06:41:49.758Z,7.12
2022-11-19T06:44:16.305Z,7.03
2022-11-19T06:46:42.818Z,6.84
2022-11-19T06:49:09.691Z,6.89
2022-11-19T06:51:36.421Z,7.09
2022-11-19T06:54:02.962Z,7.11
2022-11-19T06:56:29.395Z,7.38
2022-11-19T06:58:56.948Z,7.52
2022-11-19T07:01:23.971Z,7.72
2022-11-19T07:03:50.963Z,7.92
2022-11-19T07:06:17.439Z,8.08
2022-11-19T07:08:43.906Z,8.13
2022-11-19T07:11:10.672Z,8.23
2022-11-19T07:13:37.137Z,8.28
2022-11-19T07:16:03.698Z,8.34
2022-11-19T07:18:30.506Z,8.32
2022-11-19T07:20:57.480Z,8.34
2022-11-19T07:23:24.112Z,8.47
2022-11-19T07:25:50.539Z,8.53
2022-11-19T07:28:17.114Z,8.56
2022-11-19T07:30:43.647Z,8.28
2022-11-19T07:33:10.300Z,8.28
2022-11-19T07:35:36.820Z,8.44
2022-11-19T07:38:03.703Z,8.54
2022-11-19T07:40:31.067Z,8.56
2022-11-19T07:42:57.537Z,8.11
2022-11-19T07:45:24.000Z,7.90
2022-11-19T07:47:50.463Z,7.75
2022-11-19T07:50:17.715Z,7.85
2022-11-19T07:52:44.549Z,7.88
2022-11-19T07:55:11.549Z,7.76
2022-11-19T07:57:38.298Z,7.74
2022-11-19T08:00:06.577Z,7.86
2022-11-19T08:02:33.130Z,7.94
2022-11-19T08:05:00.344Z,7.92
2022-11-19T08:07:27.198Z,7.99
2022-11-19T08:09:56.687Z,7.78
2022-11-19T08:12:29.400Z,7.70
2022-11-19T08:14:56.050Z,7.58
2022-11-19T08:17:22.682Z,7.52
2022-11-19T08:19:49.215Z,7.45
2022-11-19T08:22:15.779Z,7.42
2022-11-19T08:24:42.286Z,7.38
2022-11-19T08:27:08.829Z,7.62
2022-11-19T08:29:35.754Z,7.76
2022-11-19T08:32:02.245Z,7.99
2022-11-19T08:34:29.747Z,7.85
2022-11-19T08:36:56.291Z,8.12
2022-11-19T08:39:22.762Z,8.60
2022-11-19T08:41:49.252Z,8.82
2022-11-19T08:44:16.620Z,8.85
2022-11-19T08:46:43.959Z,9.07
2022-11-19T08:49:11.051Z,9.15
2022-11-19T08:51:38.720Z,9.09
2022-11-19T08:54:08.321Z,8.75
2022-11-19T08:56:34.853Z,8.58
2022-11-19T08:59:03.017Z,8.27
2022-11-19T09:01:30.169Z,8.41
2022-11-19T09:03:56.743Z,8.46
2022-11-19T09:06:23.326Z,8.54
2022-11-19T09:08:49.811Z,8.42
2022-11-19T09:11:18.064Z,8.34
2022-11-19T09:13:44.642Z,8.35
2022-11-19T09:16:14.117Z,8.55
2022-11-19T09:18:40.828Z,8.44
2022-11-19T09:21:09.087Z,8.35
2022-11-19T09:23:36.332Z,8.51
2022-11-19T09:26:05.998Z,8.67
2022-11-19T09:28:32.955Z,8.99
2022-11-19T09:31:01.693Z,9.07
2022-11-19T09:33:30.045Z,9.20
2022-11-19T09:35:56.997Z,9.32
2022-11-19T09:38:23.609Z,9.48
2022-11-19T09:40:53.890Z,9.24
2022-11-19T09:43:26.590Z,9.03
2022-11-19T09:46:30.724Z,9.00
2022-11-19T09:49:03.223Z,9.06
2022-11-19T09:51:32.532Z,9.04
2022-11-19T09:54:14.559Z,8.94
2022-11-19T09:56:46.276Z,8.86
2022-11-19T09:59:21.983Z,8.82
2022-11-19T10:01:48.435Z,8.75
2022-11-19T10:04:22.623Z,8.81
2022-11-19T10:07:04.834Z,8.99
2022-11-19T10:10:01.649Z,9.13
2022-11-19T10:12:58.480Z,9.14
2022-11-19T10:15:37.964Z,9.10
2022-11-19T10:18:42.134Z,9.09
2022-11-19T10:21:17.039Z,9.15
2022-11-19T10:23:48.489Z,9.23
2022-11-19T10:26:21.084Z,9.53
2022-11-19T10:29:48.645Z,9.72
2022-11-19T10:35:19.132Z,9.72
2022-11-19T10:38:16.470Z,10.05
2022-11-19T10:40:54.881Z,10.06
2022-11-19T10:43:57.802Z,9.57
2022-11-19T10:46:28.917Z,9.25
2022-11-19T10:49:06.411Z,9.32
2022-11-19T10:51:42.151Z,9.08
2022-11-19T10:54:23.042Z,9.10
2022-11-19T10:56:50.610Z,9.27
2022-11-19T10:59:23.470Z,9.40
2022-11-19T11:01:57.587Z,9.78
2022-11-19T11:04:31.175Z,10.14
2022-11-19T11:07:02.888Z,10.37
2022-11-19T11:09:37.979Z,10.77
2022-11-19T11:12:11.416Z,10.83
2022-11-19T11:14:42.124Z,10.55
2022-11-19T11:17:25.523Z,10.57
2022-11-19T11:20:19.616Z,10.16
2022-11-19T11:22:49.188Z,10.32
2022-11-19T11:25:21.091Z,10.15
2022-11-19T11:28:04.596Z,9.85
2022-11-19T11:30:31.227Z,9.91
2022-11-19T11:32:57.766Z,10.07
2022-11-19T11:35:35.887Z,9.89
2022-11-19T11:38:03.431Z,9.86
2022-11-19T11:40:30.371Z,9.62
2022-11-19T11:42:57.239Z,9.64
2022-11-19T11:45:34.476Z,9.81
2022-11-19T11:48:11.945Z,9.58
2022-11-19T11:50:38.488Z,9.41
2022-11-19T11:53:09.187Z,9.47
2022-11-19T11:55:35.805Z,9.59
2022-11-19T11:58:05.027Z,9.62
2022-11-19T12:00:37.060Z,9.62
2022-11-19T12:03:04.754Z,9.77
2022-11-19T12:06:08.479Z,9.91
2022-11-19T12:09:02.705Z,10.03
2022-11-19T12:11:35.042Z,10.32
2022-11-19T12:14:11.255Z,10.36
2022-11-19T12:17:06.370Z,10.43
2022-11-19T12:20:03.411Z,10.51
2022-11-19T12:22:45.687Z,10.41
2022-11-19T12:25:24.363Z,10.28
2022-11-19T12:28:19.653Z,10.25
2022-11-19T12:31:08.147Z,10.29
2022-11-19T12:34:05.575Z,10.26
2022-11-19T12:36:51.397Z,10.25
2022-11-19T12:39:47.010Z,10.35
2022-11-19T12:42:50.214Z,10.47
2022-11-19T12:45:28.077Z,10.28
2022-11-19T12:48:15.227Z,10.16
2022-11-19T12:50:52.675Z,10.27
2022-11-19T12:53:27.780Z,9.84
2022-11-19T12:56:29.350Z,9.88
2022-11-19T12:59:02.216Z,9.91
2022-11-19T13:01:33.925Z,9.79
2022-11-19T13:04:17.151Z,9.99
2022-11-19T13:06:58.408Z,10.04
2022-11-19T13:09:38.863Z,10.10
2022-11-19T13:12:11.598Z,10.17
2022-11-19T13:14:45.209Z,10.34
2022-11-19T13:17:18.938Z,10.99
2022-11-19T13:19:50.302Z,11.62
2022-11-19T13:22:20.704Z,11.96
2022-11-19T13:24:54.758Z,11.84
2022-11-19T13:27:24.236Z,11.58
2022-11-19T13:29:56.854Z,11.16
2022-11-19T13:32:27.143Z,11.15
2022-11-19T13:34:59.842Z,11.21
2022-11-19T13:37:38.405Z,11.03
2022-11-19T13:40:35.442Z,10.84
2022-11-19T13:43:30.469Z,10.70
2022-11-19T13:46:08.195Z,10.48
2022-11-19T13:48:38.991Z,10.24
2022-11-19T13:51:07.328Z,10.19
2022-11-19T13:53:44.466Z,10.31
2022-11-19T13:56:13.103Z,10.49
2022-11-19T13:58:45.937Z,10.51
2022-11-19T14:01:42.877Z,10.59
2022-11-19T14:04:24.245Z,10.67
2022-11-19T14:06:56.853Z,10.92
2022-11-19T14:09:28.961Z,10.81
2022-11-19T14:12:03.710Z,10.71
2022-11-19T14:14:46.701Z,10.59
2022-11-19T14:17:17.704Z,10.60
2022-11-19T14:19:54.054Z,10.74
2022-11-19T14:22:31.709Z,10.83
2022-11-19T14:24:58.744Z,10.77
2022-11-19T14:27:27.930Z,10.63
2022-11-19T14:30:11.794Z,10.69
2022-11-19T14:32:51.143Z,10.83
2022-11-19T14:35:23.179Z,10.89
2022-11-19T14:37:52.997Z,11.01
2022-11-19T14:40:22.326Z,11.05
2022-11-19T14:43:01.170Z,11.16
2022-11-19T14:45:27.791Z,10.93
2022-11-19T14:48:02.904Z,11.14
2022-11-19T14:50:30.716Z,11.39
2022-11-19T14:52:59.534Z,11.44
2022-11-19T14:55:28.678Z,11.31
2022-11-19T14:58:01.379Z,11.24
2022-11-19T15:00:37.300Z,10.87
2022-11-19T15:03:06.923Z,10.85
2022-11-19T15:05:36.050Z,10.68
2022-11-19T15:08:17.949Z,10.59
2022-11-19T15:11:07.302Z,10.62
2022-11-19T15:13:38.491Z,10.62
2022-11-19T15:16:20.813Z,10.73
2022-11-19T15:19:10.905Z,10.73
2022-11-19T15:21:55.704Z,10.57
2022-11-19T15:24:37.546Z,10.44
2022-11-19T15:27:25.943Z,10.05
2022-11-19T15:30:04.003Z,9.75
2022-11-19T15:32:49.009Z,9.70
2022-11-19T15:35:38.392Z,9.39
2022-11-19T15:38:20.277Z,9.27
2022-11-19T15:40:49.565Z,9.00
2022-11-19T15:43:27.774Z,8.97
2022-11-19T15:46:03.421Z,9.11
2022-11-19T15:48:55.006Z,8.97
2022-11-19T15:51:21.867Z,8.75
2022-11-19T15:54:02.512Z,8.67
2022-11-19T15:56:32.107Z,8.86
2022-11-19T15:58:59.659Z,8.74
2022-11-19T16:01:26.378Z,8.78
2022-11-19T16:03:53.728Z,8.74
2022-11-19T16:06:23.093Z,8.74
2022-11-19T16:08:58.150Z,8.53
2022-11-19T16:11:34.166Z,8.63
2022-11-19T16:14:02.425Z,8.54
2022-11-19T16:16:29.499Z,8.70
2022-11-19T16:18:56.021Z,8.75
2022-11-19T16:21:29.574Z,8.58
2022-11-19T16:23:56.165Z,8.58
2022-11-19T16:26:22.924Z,8.55
2022-11-19T16:28:49.447Z,8.44
2022-11-19T16:31:15.935Z,8.32
2022-11-19T16:33:42.711Z,8.14
2022-11-19T16:36:17.939Z,7.91
2022-11-19T16:38:50.027Z,7.84
2022-11-19T16:41:27.007Z,7.86
2022-11-19T16:43:53.631Z,7.78
2022-11-19T16:46:21.131Z,7.69
2022-11-19T16:48:52.982Z,7.62
2022-11-19T16:51:31.485Z,7.58
2022-11-19T16:53:58.118Z,7.52
2022-11-19T16:56:24.749Z,7.51
2022-11-19T16:58:59.859Z,7.54
2022-11-19T17:01:29.409Z,7.42
2022-11-19T17:04:07.702Z,7.40
2022-11-19T17:06:36.365Z,7.41
2022-11-19T17:09:05.162Z,7.42
2022-11-19T17:11:37.884Z,7.45
2022-11-19T17:14:16.503Z,7.48
2022-11-19T17:16:51.547Z,7.54
2022-11-19T17:19:31.687Z,7.52
2022-11-19T17:22:04.003Z,7.61
2022-11-19T17:24:42.541Z,7.67
2022-11-19T17:27:26.766Z,7.70
2022-11-19T17:29:58.718Z,7.62
2022-11-19T17:32:25.233Z,7.57
2022-11-19T17:34:51.755Z,7.52
2022-11-19T17:37:18.243Z,7.40
2022-11-19T17:39:44.752Z,7.44
2022-11-19T17:42:11.412Z,7.51
2022-11-19T17:44:38.275Z,7.42
2022-11-19T17:47:23.631Z,7.47
2022-11-19T17:49:51.242Z,7.53
2022-11-19T17:52:21.581Z,7.50
2022-11-19T17:54:49.352Z,7.59
2022-11-19T17:57:15.842Z,7.62
2022-11-19T17:59:42.368Z,7.68
2022-11-19T18:02:16.944Z,7.78
2022-11-19T18:04:44.345Z,7.57
2022-11-19T18:07:11.520Z,7.49
2022-11-19T18:09:38.888Z,7.40
2022-11-19T18:12:14.407Z,7.35
2022-11-19T18:14:41.357Z,7.36
2022-11-19T18:17:11.971Z,7.19
2022-11-19T18:19:38.486Z,7.22
2022-11-19T18:22:05.078Z,7.22
2022-11-19T18:24:31.581Z,7.38
2022-11-19T18:26:58.101Z,7.49
2022-11-19T18:29:24.797Z,7.45
2022-11-19T18:31:51.320Z,7.45
2022-11-19T18:34:22.637Z,7.33
2022-11-19T18:36:49.527Z,7.39
2022-11-19T18:39:16.032Z,7.27
2022-11-19T18:41:42.702Z,7.25
2022-11-19T18:44:14.191Z,7.38
2022-11-19T18:46:40.710Z,7.43
2022-11-19T18:49:07.203Z,7.36
2022-11-19T18:51:33.694Z,7.40
2022-11-19T18:54:00.180Z,7.29
2022-11-19T18:56:26.732Z,7.28
2022-11-19T18:58:53.687Z,7.26
2022-11-19T19:01:20.276Z,7.30
2022-11-19T19:03:47.004Z,7.17
2022-11-19T19:06:13.540Z,7.24
2022-11-19T19:08:40.049Z,7.25
2022-11-19T19:11:07.945Z,7.29
2022-11-19T19:13:34.439Z,7.39
2022-11-19T19:16:00.937Z,7.38
2022-11-19T19:18:27.420Z,7.36
2022-11-19T19:20:53.900Z,7.34
2022-11-19T19:23:20.439Z,7.21
2022-11-19T19:25:46.989Z,7.18
2022-11-19T19:28:13.486Z,7.15
2022-11-19T19:30:39.982Z,7.10
2022-11-19T19:33:06.488Z,7.11
2022-11-19T19:35:33.043Z,7.00
2022-11-19T19:37:59.576Z,7.01
2022-11-19T19:40:26.087Z,6.87
2022-11-19T19:42:52.567Z,6.91
2022-11-19T19:45:19.183Z,6.93
2022-11-19T19:47:45.672Z,6.74
2022-11-19T19:50:12.383Z,6.68
2022-11-19T19:52:38.852Z,6.64
2022-11-19T19:55:05.879Z,6.55
2022-11-19T19:57:32.450Z,6.39
2022-11-19T19:59:58.967Z,6.33
2022-11-19T20:02:25.493Z,6.25
2022-11-19T20:04:52.030Z,6.18
2022-11-19T20:07:18.571Z,6.18
2022-11-19T20:09:45.077Z,6.25
2022-11-19T20:12:11.565Z,6.32
2022-11-19T20:14:38.124Z,6.19
2022-11-19T20:17:04.626Z,6.29
2022-11-19T20:19:31.143Z,6.26
2022-11-19T20:21:57.701Z,6.29
2022-11-19T20:24:24.215Z,6.21
2022-11-19T20:26:50.767Z,6.13
2022-11-19T20:29:17.233Z,6.22
2022-11-19T20:31:48.055Z,6.16
2022-11-19T20:34:15.245Z,6.29
2022-11-19T20:36:42.359Z,6.28
2022-11-19T20:39:09.039Z,6.28
2022-11-19T20:41:35.546Z,6.32
2022-11-19T20:44:02.652Z,6.31
2022-11-19T20:46:29.118Z,6.38
2022-11-19T20:48:55.605Z,6.51
2022-11-19T20:51:22.100Z,6.44
2022-11-19T20:53:48.593Z,6.32
2022-11-19T20:56:15.086Z,6.32
2022-11-19T20:58:41.611Z,6.29
2022-11-19T21:01:08.954Z,6.15
2022-11-19T21:03:35.507Z,6.16
2022-11-19T21:06:03.460Z,6.20
2022-11-19T21:08:31.859Z,6.32
2022-11-19T21:11:00.172Z,6.31
2022-11-19T21:13:26.714Z,6.28
2022-11-19T21:15:54.727Z,6.20
2022-11-19T21:18:24.255Z,6.00
2022-11-19T21:20:51.470Z,5.99
2022-11-19T21:23:18.943Z,6.07
2022-11-19T21:25:45.850Z,6.12
2022-11-19T21:28:12.406Z,6.44
2022-11-19T21:30:38.939Z,6.56
2022-11-19T21:33:05.498Z,6.73
2022-11-19T21:35:31.994Z,6.88
2022-11-19T21:37:58.496Z,7.02
2022-11-19T21:40:25.071Z,7.12
2022-11-19T21:42:51.535Z,7.16
2022-11-19T21:45:18.032Z,7.23
2022-11-19T21:47:44.527Z,7.22
2022-11-19T21:50:10.998Z,7.25
2022-11-19T21:52:37.535Z,7.17
2022-11-19T21:55:04.377Z,7.24
2022-11-19T21:57:30.959Z,7.36
2022-11-19T21:59:57.486Z,7.31
2022-11-19T22:02:26.479Z,7.19
2022-11-19T22:04:52.965Z,7.40
2022-11-19T22:07:19.498Z,7.54
2022-11-19T22:09:46.050Z,7.54
2022-11-19T22:12:12.652Z,7.29
2022-11-19T22:14:39.186Z,6.98
2022-11-19T22:17:05.647Z,6.88
2022-11-19T22:19:32.317Z,6.67
2022-11-19T22:21:58.823Z,6.77
2022-11-19T22:24:25.524Z,7.00
2022-11-19T22:26:52.076Z,7.07
2022-11-19T22:29:18.782Z,6.76
2022-11-19T22:31:45.692Z,6.38
2022-11-19T22:34:12.588Z,6.37
2022-11-19T22:36:39.180Z,6.31
2022-11-19T22:39:05.804Z,6.45
2022-11-19T22:41:32.350Z,6.28
2022-11-19T22:43:58.830Z,6.11
2022-11-19T22:46:25.665Z,6.12
2022-11-19T22:48:52.441Z,6.09
2022-11-19T22:51:21.611Z,5.90
2022-11-19T22:53:49.493Z,5.91
2022-11-19T22:56:18.615Z,5.88
2022-11-19T22:58:45.355Z,5.80
2022-11-19T23:01:24.338Z,5.78
2022-11-19T23:03:51.333Z,5.79
2022-11-19T23:06:18.018Z,5.73
2022-11-19T23:08:44.935Z,5.72
2022-11-19T23:11:13.266Z,5.55
2022-11-19T23:13:41.485Z,5.48
2022-11-19T23:16:09.631Z,5.44
2022-11-19T23:18:41.054Z,5.37
2022-11-19T23:21:13.442Z,5.32
2022-11-19T23:23:40.133Z,5.28
2022-11-19T23:26:08.024Z,5.28
2022-11-19T23:28:36.375Z,5.23
2022-11-19T23:31:24.560Z,5.33
2022-11-19T23:33:57.473Z,5.39
2022-11-19T23:36:33.523Z,5.50
2022-11-19T23:39:00.620Z,5.54
2022-11-19T23:41:27.835Z,5.38
2022-11-19T23:43:55.180Z,5.40
2022-11-19T23:46:27.337Z,5.36
2022-11-19T23:48:55.307Z,5.39
2022-11-19T23:51:32.847Z,5.37
2022-11-19T23:53:59.384Z,5.36
2022-11-19T23:56:26.817Z,5.38
2022-11-19T23:58:53.442Z,5.42
